Time;durP1;ratioP1;P1;durP2;ratioP2;P2;SDS_P1;SDS_P2;PMS_P1;PMS_P2;Temp;Humidity;BMP_temperature;BMP_pressure;BME280_temperature;BME280_humidity;BME280_pressure;Samples;Min_cycle;Max_cycle;Signal;HPM_P1;HPM_P2
2022/03/29 00:01:04;;;;;;;23.55;14.77;;;7.30;99.90;;;;;;5093595;28;20055;-71
2022/03/29 00:03:31;;;;;;;20.60;13.40;;;7.40;99.90;;;;;;5075683;28;20044;-71
2022/03/29 00:05:58;;;;;;;20.00;12.80;;;7.40;99.90;;;;;;5075650;28;20052;-71
2022/03/29 00:08:25;;;;;;;22.02;13.82;;;7.40;99.90;;;;;;5075203;28;20048;-70
2022/03/29 00:10:52;;;;;;;22.35;14.57;;;7.30;99.90;;;;;;5075735;28;20044;-71
2022/03/29 00:13:19;;;;;;;25.23;14.45;;;7.30;99.90;;;;;;5075763;28;20040;-70
2022/03/29 00:15:47;;;;;;;19.85;13.35;;;7.30;99.90;;;;;;5075194;28;20514;-71
2022/03/29 00:18:14;;;;;;;25.00;14.52;;;7.30;99.90;;;;;;5076075;28;20121;-71
2022/03/29 00:20:41;;;;;;;22.55;13.98;;;7.40;99.90;;;;;;5075368;28;20048;-71
2022/03/29 00:23:08;;;;;;;23.10;13.65;;;7.40;99.90;;;;;;5093105;28;20142;-72
2022/03/29 00:25:35;;;;;;;21.50;13.23;;;7.40;99.90;;;;;;5075216;28;20040;-72
2022/03/29 00:28:02;;;;;;;24.33;13.77;;;7.40;99.90;;;;;;5093442;28;20125;-71
2022/03/29 00:30:29;;;;;;;23.40;13.88;;;7.40;99.90;;;;;;5074949;28;20109;-71
2022/03/29 00:32:57;;;;;;;24.42;14.20;;;7.40;99.90;;;;;;5075241;28;20082;-71
2022/03/29 00:35:24;;;;;;;27.05;15.32;;;7.40;99.90;;;;;;5093038;28;20048;-71
2022/03/29 00:37:53;;;;;;;24.48;14.82;;;7.40;99.90;;;;;;5071375;28;20412;-71
2022/03/29 00:40:20;;;;;;;23.65;14.50;;;7.40;99.90;;;;;;5055354;28;20462;-71
2022/03/29 00:42:47;;;;;;;23.77;14.90;;;7.40;99.90;;;;;;5054875;28;20040;-71
2022/03/29 00:45:14;;;;;;;27.38;13.82;;;7.40;99.90;;;;;;5072971;28;20106;-71
2022/03/29 00:47:41;;;;;;;26.83;13.88;;;7.40;99.90;;;;;;5073189;28;20044;-68
2022/03/29 00:50:10;;;;;;;20.95;13.23;;;7.40;99.90;;;;;;5072554;28;20803;-71
2022/03/29 00:52:39;;;;;;;21.15;13.50;;;7.40;99.90;;;;;;5083945;28;20040;-71
2022/03/29 00:55:07;;;;;;;21.98;13.52;;;7.40;99.90;;;;;;5075220;28;20063;-71
2022/03/29 00:57:35;;;;;;;22.15;14.20;;;7.40;99.90;;;;;;5074546;28;20442;-69
2022/03/29 01:00:03;;;;;;;20.77;13.82;;;7.40;99.90;;;;;;5092877;28;20418;-71
2022/03/29 01:02:29;;;;;;;20.63;12.23;;;7.40;99.90;;;;;;5093168;28;20048;-71
2022/03/29 01:04:56;;;;;;;22.88;14.73;;;7.40;99.90;;;;;;5074267;28;20090;-71
2022/03/29 01:07:27;;;;;;;24.60;15.10;;;7.40;99.90;;;;;;5093033;28;20056;-71
2022/03/29 01:09:54;;;;;;;25.00;15.23;;;7.30;99.90;;;;;;5095122;28;20052;-71
2022/03/29 01:12:24;;;;;;;23.98;15.15;;;7.30;99.90;;;;;;5078512;28;20090;-71
2022/03/29 01:14:51;;;;;;;27.45;15.43;;;7.30;99.90;;;;;;5097199;28;20048;-71
2022/03/29 01:20:12;;;;;;;25.77;16.65;;;7.30;99.90;;;;;;5078003;28;20047;-71
2022/03/29 01:22:42;;;;;;;28.08;16.63;;;7.20;99.90;;;;;;5078942;28;20114;-71
2022/03/29 01:25:11;;;;;;;23.70;15.30;;;7.20;99.90;;;;;;5078390;28;20044;-71
2022/03/29 01:27:39;;;;;;;26.35;14.75;;;7.20;99.90;;;;;;5075215;28;20091;-72
2022/03/29 01:30:07;;;;;;;26.92;15.15;;;7.20;99.90;;;;;;5077039;28;20132;-71
2022/03/29 01:32:35;;;;;;;25.92;14.63;;;7.20;99.90;;;;;;5074679;28;20056;-71
2022/03/29 01:35:03;;;;;;;31.52;16.70;;;7.20;99.90;;;;;;5076722;28;20105;-71
2022/03/29 01:37:30;;;;;;;28.33;15.48;;;7.20;99.90;;;;;;5075364;28;20554;-71
2022/03/29 01:39:58;;;;;;;25.92;16.67;;;7.20;99.90;;;;;;5075959;28;20114;-71
2022/03/29 01:42:25;;;;;;;24.70;16.05;;;7.20;99.90;;;;;;5075084;28;20497;-71
2022/03/29 01:44:52;;;;;;;27.30;14.75;;;7.20;99.90;;;;;;5076075;28;20554;-71
2022/03/29 01:47:22;;;;;;;29.15;16.10;;;7.20;99.90;;;;;;5075420;28;20053;-71
2022/03/29 01:49:50;;;;;;;26.92;15.48;;;7.20;99.90;;;;;;5074951;28;20394;-71
2022/03/29 01:52:17;;;;;;;27.02;14.05;;;7.20;99.90;;;;;;5075354;28;20537;-71
2022/03/29 01:54:44;;;;;;;25.85;16.85;;;7.20;99.90;;;;;;5074102;28;20542;-70
2022/03/29 01:57:12;;;;;;;30.50;16.73;;;7.20;99.90;;;;;;5076189;28;20048;-71
2022/03/29 02:02:24;;;;;;;28.38;16.20;;;7.20;99.90;;;;;;5075168;28;20126;-71
2022/03/29 02:04:51;;;;;;;25.27;16.23;;;7.20;99.90;;;;;;5074591;28;20072;-71
2022/03/29 02:07:18;;;;;;;27.48;15.93;;;7.20;99.90;;;;;;5074185;28;20056;-70
2022/03/29 02:09:45;;;;;;;23.48;14.85;;;7.20;99.90;;;;;;5074726;28;20574;-71
2022/03/29 02:12:13;;;;;;;23.15;14.70;;;7.10;99.90;;;;;;5074613;28;20174;-70
2022/03/29 02:14:40;;;;;;;24.30;15.05;;;7.10;99.90;;;;;;5075394;28;20045;-70
2022/03/29 02:17:07;;;;;;;28.30;15.77;;;7.10;99.90;;;;;;5075543;28;20095;-70
2022/03/29 02:19:34;;;;;;;25.02;15.20;;;7.10;99.90;;;;;;5075534;28;20044;-70
2022/03/29 02:22:01;;;;;;;23.73;14.68;;;7.10;99.90;;;;;;5075010;28;20459;-72
2022/03/29 02:24:28;;;;;;;25.10;14.75;;;7.10;99.90;;;;;;5071270;28;20080;-72
2022/03/29 02:26:54;;;;;;;32.53;16.60;;;7.10;99.90;;;;;;5054155;28;20107;-71
2022/03/29 02:29:23;;;;;;;26.08;15.05;;;7.10;99.90;;;;;;5067231;28;20076;-70
2022/03/29 02:31:50;;;;;;;26.30;14.93;;;7.10;99.90;;;;;;5074455;28;20065;-71
2022/03/29 02:34:18;;;;;;;25.58;14.90;;;7.10;99.90;;;;;;5075403;28;20072;-71
2022/03/29 02:36:44;;;;;;;32.60;16.02;;;7.10;99.90;;;;;;5073231;28;20527;-71
2022/03/29 02:39:11;;;;;;;25.55;14.27;;;7.10;99.90;;;;;;5074213;28;20102;-72
2022/03/29 02:41:38;;;;;;;27.38;15.85;;;7.10;99.90;;;;;;5075269;28;20102;-71
2022/03/29 02:44:05;;;;;;;24.58;15.43;;;7.00;99.90;;;;;;5074533;28;20044;-70
2022/03/29 02:46:34;;;;;;;26.33;15.02;;;7.00;99.90;;;;;;5075431;28;20450;-71
2022/03/29 02:49:01;;;;;;;25.08;15.55;;;7.00;99.90;;;;;;5074357;28;20551;-71
2022/03/29 02:51:28;;;;;;;25.80;15.60;;;7.00;99.90;;;;;;5074323;28;20053;-70
2022/03/29 02:53:55;;;;;;;22.10;14.63;;;7.00;99.90;;;;;;5074097;28;20083;-71
2022/03/29 02:56:22;;;;;;;24.02;14.80;;;7.00;99.90;;;;;;5074882;28;20048;-71
2022/03/29 02:58:49;;;;;;;27.63;14.63;;;7.00;99.90;;;;;;5070092;28;20048;-71
2022/03/29 03:01:16;;;;;;;24.63;15.18;;;7.00;99.90;;;;;;5055101;28;20107;-72
2022/03/29 03:03:44;;;;;;;27.23;15.27;;;7.00;99.90;;;;;;5054238;28;20559;-71
2022/03/29 03:06:11;;;;;;;29.85;16.10;;;7.00;99.90;;;;;;5054659;28;20543;-71
2022/03/29 03:08:38;;;;;;;25.90;17.08;;;7.00;99.90;;;;;;5053650;28;20080;-71
2022/03/29 03:11:06;;;;;;;26.17;14.57;;;7.00;99.90;;;;;;5053928;28;20052;-72
2022/03/29 03:13:33;;;;;;;26.52;15.32;;;7.00;99.90;;;;;;5061009;28;20132;-72
2022/03/29 03:16:00;;;;;;;24.38;15.10;;;7.00;99.90;;;;;;5073175;28;20110;-73
2022/03/29 03:18:27;;;;;;;26.75;14.93;;;7.00;99.90;;;;;;5072917;28;20057;-72
2022/03/29 03:20:55;;;;;;;26.98;15.25;;;7.00;99.90;;;;;;5073348;28;20060;-71
2022/03/29 03:23:22;;;;;;;28.17;15.15;;;7.00;99.90;;;;;;5074526;28;20056;-70
2022/03/29 03:25:50;;;;;;;23.52;15.43;;;7.00;99.90;;;;;;5073941;28;20052;-70
2022/03/29 03:28:17;;;;;;;24.52;14.98;;;7.00;99.90;;;;;;5076069;28;20472;-71
2022/03/29 03:30:44;;;;;;;27.83;15.57;;;7.00;99.90;;;;;;5075445;28;20048;-71
2022/03/29 03:33:11;;;;;;;23.48;14.90;;;7.00;99.90;;;;;;5075615;28;20442;-71
2022/03/29 03:35:38;;;;;;;26.55;14.98;;;7.10;99.90;;;;;;5094422;28;20051;-71
2022/03/29 03:38:07;;;;;;;25.00;14.65;;;7.00;99.90;;;;;;5094461;28;20094;-71
2022/03/29 03:40:34;;;;;;;27.27;15.00;;;7.10;99.90;;;;;;5076458;28;20559;-70
2022/03/29 03:43:03;;;;;;;31.38;15.13;;;7.10;99.90;;;;;;5077238;28;20052;-70
2022/03/29 03:45:31;;;;;;;28.92;16.23;;;7.10;99.90;;;;;;5072759;28;20090;-70
2022/03/29 03:47:57;;;;;;;29.60;16.05;;;7.10;99.90;;;;;;5055748;28;20106;-70
2022/03/29 03:50:24;;;;;;;28.42;16.35;;;7.10;99.90;;;;;;5073018;28;20126;-70
2022/03/29 03:52:53;;;;;;;26.42;15.68;;;7.00;99.90;;;;;;5063034;28;20449;-70
2022/03/29 03:55:21;;;;;;;33.38;16.45;;;7.00;99.90;;;;;;5094971;28;20074;-69
2022/03/29 03:57:49;;;;;;;24.98;15.13;;;7.00;99.90;;;;;;5094470;28;20454;-70
2022/03/29 04:00:21;;;;;;;25.40;16.65;;;7.00;99.90;;;;;;5093162;28;20044;-71
2022/03/29 04:02:49;;;;;;;27.67;14.85;;;7.00;99.90;;;;;;5076272;28;20079;-70
2022/03/29 04:05:16;;;;;;;26.02;15.52;;;7.00;99.90;;;;;;5075942;28;20052;-70
2022/03/29 04:07:43;;;;;;;24.77;16.02;;;7.00;99.90;;;;;;5075122;28;20060;-70
2022/03/29 04:10:11;;;;;;;28.38;15.93;;;7.00;99.90;;;;;;5075914;28;20052;-71
2022/03/29 04:12:40;;;;;;;27.58;15.15;;;7.00;99.90;;;;;;5093355;28;20065;-71
2022/03/29 04:15:08;;;;;;;29.85;16.60;;;7.00;99.90;;;;;;5093071;28;20085;-70
2022/03/29 04:17:35;;;;;;;27.80;16.63;;;7.10;99.90;;;;;;5075255;28;20526;-71
2022/03/29 04:20:02;;;;;;;25.33;15.75;;;7.00;99.90;;;;;;5093503;28;20101;-69
2022/03/29 04:22:29;;;;;;;25.85;15.70;;;7.10;99.90;;;;;;5074236;28;20514;-70
2022/03/29 04:24:56;;;;;;;28.90;16.25;;;7.00;99.90;;;;;;5093326;28;20128;-70
2022/03/29 04:27:23;;;;;;;25.67;16.92;;;7.00;99.90;;;;;;5093317;28;20392;-71
2022/03/29 04:29:51;;;;;;;25.95;15.75;;;7.00;99.90;;;;;;5071334;28;20451;-70
2022/03/29 04:32:18;;;;;;;26.23;15.85;;;7.00;99.90;;;;;;5073083;28;20581;-70
2022/03/29 04:34:46;;;;;;;27.40;17.17;;;7.00;99.90;;;;;;5072921;28;20048;-70
2022/03/29 04:37:13;;;;;;;30.20;15.82;;;7.00;99.90;;;;;;5065815;28;20411;-70
2022/03/29 04:39:40;;;;;;;27.65;15.55;;;7.00;99.90;;;;;;5066012;28;20068;-69
2022/03/29 04:42:08;;;;;;;26.02;16.30;;;7.10;99.90;;;;;;5082677;28;20044;-69
2022/03/29 04:44:35;;;;;;;29.30;15.63;;;7.00;99.90;;;;;;5073160;28;20059;-70
2022/03/29 04:47:04;;;;;;;28.83;16.23;;;7.00;99.90;;;;;;5084731;28;20484;-70
2022/03/29 04:49:31;;;;;;;32.83;17.17;;;7.00;99.90;;;;;;5067520;28;20127;-70
2022/03/29 04:51:59;;;;;;;27.52;16.38;;;7.10;99.90;;;;;;5066211;28;20105;-70
2022/03/29 04:54:26;;;;;;;26.63;16.40;;;7.00;99.90;;;;;;5067918;28;20059;-69
2022/03/29 04:56:53;;;;;;;32.78;16.70;;;7.00;99.90;;;;;;5086152;28;20109;-70
2022/03/29 04:59:20;;;;;;;29.23;17.08;;;7.00;99.90;;;;;;5084033;28;20101;-70
2022/03/29 05:01:47;;;;;;;25.83;17.02;;;7.00;99.90;;;;;;5064479;28;20125;-71
2022/03/29 05:04:15;;;;;;;26.13;16.30;;;7.00;99.90;;;;;;5081703;28;20508;-70
2022/03/29 05:06:42;;;;;;;28.67;17.45;;;7.00;99.90;;;;;;5065081;28;20048;-70
2022/03/29 05:09:09;;;;;;;29.70;16.52;;;7.00;99.90;;;;;;5071974;28;20061;-70
2022/03/29 05:11:36;;;;;;;29.20;17.23;;;7.00;99.90;;;;;;5063347;28;20106;-72
2022/03/29 05:14:03;;;;;;;30.17;15.98;;;7.00;99.90;;;;;;5063388;28;20068;-72
2022/03/29 05:16:30;;;;;;;29.45;16.23;;;7.00;99.90;;;;;;5082459;28;20542;-70
2022/03/29 05:18:57;;;;;;;34.45;18.00;;;6.90;99.90;;;;;;5084425;28;20454;-70
2022/03/29 05:21:25;;;;;;;29.23;17.17;;;7.00;99.90;;;;;;5087379;28;20044;-70
2022/03/29 05:23:52;;;;;;;28.20;16.92;;;6.90;99.90;;;;;;5065844;28;20074;-70
2022/03/29 05:26:19;;;;;;;32.95;17.15;;;7.00;99.90;;;;;;5061019;28;20106;-71
2022/03/29 05:28:45;;;;;;;34.00;18.65;;;7.00;99.90;;;;;;5064240;28;20055;-71
2022/03/29 05:31:12;;;;;;;33.00;18.85;;;7.00;99.90;;;;;;5064927;28;20048;-71
2022/03/29 05:33:39;;;;;;;32.22;18.67;;;7.00;99.90;;;;;;5061068;28;20104;-71
2022/03/29 05:36:06;;;;;;;33.00;17.65;;;7.00;99.90;;;;;;5062907;28;20130;-71
2022/03/29 05:38:35;;;;;;;28.65;17.83;;;7.00;99.90;;;;;;5065687;28;20078;-72
2022/03/29 05:41:02;;;;;;;38.65;19.35;;;7.00;99.90;;;;;;5067058;28;20115;-72
2022/03/29 05:43:28;;;;;;;31.63;18.80;;;7.00;99.90;;;;;;5063285;28;20107;-72
2022/03/29 05:48:55;;;;;;;32.35;17.20;;;7.00;99.90;;;;;;4997935;28;20178;-70
2022/03/29 05:51:23;;;;;;;30.27;17.70;;;7.00;99.90;;;;;;5061313;28;20128;-69
2022/03/29 05:53:52;;;;;;;33.10;18.00;;;7.10;99.90;;;;;;5062341;28;20126;-69
2022/03/29 05:56:19;;;;;;;33.90;18.60;;;7.10;99.90;;;;;;5068700;28;20083;-71
2022/03/29 05:58:46;;;;;;;32.28;18.27;;;7.20;99.90;;;;;;5068721;28;20497;-70
2022/03/29 06:01:13;;;;;;;28.65;17.40;;;7.10;99.90;;;;;;5067651;28;20055;-71
2022/03/29 06:03:40;;;;;;;37.83;18.60;;;7.10;99.90;;;;;;5064069;28;20084;-70
2022/03/29 06:06:08;;;;;;;33.03;18.27;;;7.10;99.90;;;;;;5066177;28;20090;-70
2022/03/29 06:08:35;;;;;;;29.67;18.50;;;7.10;99.90;;;;;;5067790;28;20052;-69
2022/03/29 06:11:04;;;;;;;31.40;17.60;;;7.10;99.90;;;;;;5067954;28;20496;-70
2022/03/29 06:13:31;;;;;;;30.73;17.75;;;7.10;99.90;;;;;;5067678;28;20055;-70
2022/03/29 06:15:58;;;;;;;30.75;19.02;;;7.00;99.90;;;;;;5063541;28;20049;-70
2022/03/29 06:18:25;;;;;;;32.03;18.10;;;7.00;99.90;;;;;;5069192;28;20048;-69
2022/03/29 06:20:52;;;;;;;36.10;19.63;;;7.00;99.90;;;;;;5065108;28;20052;-71
2022/03/29 06:23:20;;;;;;;35.83;18.80;;;7.10;99.90;;;;;;5066547;28;20048;-69
2022/03/29 06:25:47;;;;;;;34.78;19.00;;;7.10;99.90;;;;;;5063149;28;20076;-69
2022/03/29 06:28:15;;;;;;;37.03;19.27;;;7.10;99.90;;;;;;5070382;28;20480;-69
2022/03/29 06:30:42;;;;;;;32.15;17.83;;;7.10;99.90;;;;;;5087552;28;20458;-69
2022/03/29 06:33:10;;;;;;;30.90;18.55;;;7.10;99.90;;;;;;5091296;28;20052;-70
2022/03/29 06:35:38;;;;;;;37.70;20.05;;;7.10;99.90;;;;;;5073770;28;20491;-70
2022/03/29 06:38:06;;;;;;;38.78;19.40;;;7.10;99.90;;;;;;5092886;28;20105;-70
2022/03/29 06:40:34;;;;;;;39.95;19.88;;;7.10;99.90;;;;;;5072297;28;20052;-70
2022/03/29 06:43:01;;;;;;;33.33;18.83;;;7.10;99.90;;;;;;5074584;28;20051;-71
2022/03/29 06:45:30;;;;;;;35.35;17.88;;;7.20;99.90;;;;;;5075950;28;20040;-71
2022/03/29 06:47:58;;;;;;;37.50;18.65;;;7.20;99.90;;;;;;5075506;28;20048;-71
2022/03/29 06:50:25;;;;;;;33.17;17.75;;;7.20;99.90;;;;;;5075609;28;20379;-70
2022/03/29 06:52:52;;;;;;;30.90;18.00;;;7.30;99.90;;;;;;5093231;28;20094;-70
2022/03/29 06:55:21;;;;;;;36.60;18.80;;;7.30;99.90;;;;;;5093740;28;20049;-70
2022/03/29 06:57:48;;;;;;;27.27;17.33;;;7.30;99.90;;;;;;5077929;28;20054;-70
2022/03/29 07:00:15;;;;;;;30.25;16.90;;;7.30;99.90;;;;;;5093572;28;20048;-71
2022/03/29 07:02:44;;;;;;;30.60;18.42;;;7.30;99.90;;;;;;5074809;28;20074;-71
2022/03/29 07:05:11;;;;;;;30.45;18.50;;;7.30;99.90;;;;;;5074387;28;20056;-68
2022/03/29 07:07:38;;;;;;;30.98;18.88;;;7.40;99.90;;;;;;5074305;28;20056;-69
2022/03/29 07:12:52;;;;;;;30.38;18.30;;;7.50;99.90;;;;;;5075334;28;20059;-69
2022/03/29 07:15:19;;;;;;;32.30;18.17;;;7.60;99.90;;;;;;5074900;28;20101;-69
2022/03/29 07:17:48;;;;;;;31.40;16.02;;;7.60;99.90;;;;;;5090291;28;20121;-69
2022/03/29 07:20:19;;;;;;;33.88;18.00;;;7.70;99.90;;;;;;5074362;28;20105;-69
2022/03/29 07:22:47;;;;;;;32.00;18.10;;;7.80;99.90;;;;;;5075276;28;20054;-69
2022/03/29 07:25:16;;;;;;;29.83;19.13;;;7.90;99.90;;;;;;5091270;28;20087;-69
2022/03/29 07:27:43;;;;;;;35.63;18.10;;;8.00;99.90;;;;;;5064815;28;20139;-69
2022/03/29 07:30:10;;;;;;;32.38;18.90;;;8.10;99.90;;;;;;5093039;28;20503;-70
2022/03/29 07:32:44;;;;;;;33.40;19.13;;;8.20;99.90;;;;;;5073952;28;20051;-70
2022/03/29 07:35:14;;;;;;;32.35;17.67;;;8.30;99.90;;;;;;5092911;28;20084;-70
2022/03/29 07:37:40;;;;;;;34.95;18.75;;;8.40;99.90;;;;;;5092132;28;20516;-70
2022/03/29 07:40:09;;;;;;;32.35;19.15;;;8.50;99.90;;;;;;5091540;28;20061;-70
2022/03/29 07:42:36;;;;;;;36.38;18.08;;;8.60;99.90;;;;;;5073607;28;20151;-70
2022/03/29 07:45:04;;;;;;;37.15;19.00;;;8.80;99.90;;;;;;5092275;28;20204;-70
2022/03/29 07:47:31;;;;;;;32.40;17.25;;;8.80;99.90;;;;;;5074252;28;20140;-70
2022/03/29 07:49:58;;;;;;;27.02;17.70;;;8.90;99.90;;;;;;5092418;28;20117;-70
2022/03/29 07:52:26;;;;;;;29.33;17.33;;;9.00;99.90;;;;;;5091230;28;20105;-71
2022/03/29 07:54:53;;;;;;;35.88;18.50;;;9.00;99.90;;;;;;5074198;28;20102;-70
2022/03/29 07:57:20;;;;;;;29.90;17.17;;;9.10;99.90;;;;;;5075073;28;20383;-70
2022/03/29 07:59:47;;;;;;;29.27;16.58;;;9.30;99.90;;;;;;5073553;28;20457;-70
2022/03/29 08:02:14;;;;;;;28.63;16.65;;;9.30;99.90;;;;;;5074094;28;20356;-70
2022/03/29 08:04:41;;;;;;;28.35;16.13;;;9.20;99.90;;;;;;5092138;28;20040;-70
2022/03/29 08:07:08;;;;;;;27.05;15.35;;;9.30;99.90;;;;;;5073456;28;20113;-70
2022/03/29 08:09:37;;;;;;;26.65;15.18;;;9.30;99.90;;;;;;5074115;28;20052;-70
2022/03/29 08:12:05;;;;;;;28.85;15.65;;;9.40;99.90;;;;;;5091693;28;20110;-70
2022/03/29 08:14:32;;;;;;;25.65;15.10;;;9.40;99.90;;;;;;5070006;28;20056;-70
2022/03/29 08:16:59;;;;;;;29.48;15.40;;;9.50;99.90;;;;;;5073997;28;20083;-70
2022/03/29 08:19:26;;;;;;;28.50;15.27;;;9.50;99.90;;;;;;5092242;28;20059;-70
2022/03/29 08:21:53;;;;;;;29.65;15.15;;;9.60;99.90;;;;;;5091403;28;20101;-70
2022/03/29 08:24:23;;;;;;;30.90;16.45;;;9.60;99.90;;;;;;5073727;28;20056;-70
2022/03/29 08:26:53;;;;;;;35.38;15.82;;;9.70;99.90;;;;;;5073399;28;20059;-70
2022/03/29 08:29:21;;;;;;;26.65;15.50;;;9.80;99.90;;;;;;5073395;28;20051;-71
2022/03/29 08:31:50;;;;;;;25.63;14.73;;;9.80;99.90;;;;;;5073347;28;20500;-71
2022/03/29 08:34:18;;;;;;;22.80;14.55;;;9.90;99.90;;;;;;5091410;28;20066;-70
2022/03/29 08:36:45;;;;;;;28.67;15.82;;;9.90;99.90;;;;;;5090922;28;20063;-70
2022/03/29 08:39:12;;;;;;;28.05;15.38;;;9.80;99.90;;;;;;5073317;28;20052;-70
2022/03/29 08:41:40;;;;;;;25.60;15.68;;;9.70;99.90;;;;;;5072810;28;20105;-70
2022/03/29 08:44:08;;;;;;;24.90;13.23;;;9.80;99.90;;;;;;5073836;28;20055;-71
2022/03/29 08:46:38;;;;;;;31.50;13.70;;;9.90;99.90;;;;;;5091199;28;20113;-70
2022/03/29 08:49:05;;;;;;;41.63;13.20;;;10.10;99.90;;;;;;5073026;28;20051;-69
2022/03/29 08:51:33;;;;;;;29.88;12.18;;;10.10;99.90;;;;;;5091622;28;20066;-70
2022/03/29 08:54:00;;;;;;;26.17;10.50;;;10.20;99.90;;;;;;5091103;28;20492;-69
2022/03/29 08:56:26;;;;;;;25.40;10.70;;;10.20;99.90;;;;;;5076237;28;20052;-70
2022/03/29 08:58:53;;;;;;;21.48;11.23;;;10.10;99.90;;;;;;5073313;28;20056;-69
2022/03/29 09:01:23;;;;;;;25.45;10.57;;;10.10;99.90;;;;;;5092818;28;20056;-70
2022/03/29 09:04:10;;;;;;;25.55;10.60;;;10.30;99.90;;;;;;5074143;28;20059;-70
2022/03/29 09:07:00;;;;;;;19.85;10.10;;;10.40;99.90;;;;;;5073189;28;20043;-71
2022/03/29 09:09:29;;;;;;;23.67;9.48;;;10.40;99.90;;;;;;5088691;28;20059;-70
2022/03/29 09:11:57;;;;;;;22.50;9.75;;;10.50;99.90;;;;;;5073694;28;20060;-70
2022/03/29 09:14:26;;;;;;;22.10;9.75;;;10.70;99.90;;;;;;5090279;28;20048;-71
2022/03/29 09:16:54;;;;;;;22.45;9.48;;;10.90;99.90;;;;;;5091558;28;20062;-70
2022/03/29 09:19:25;;;;;;;22.85;9.57;;;11.10;99.90;;;;;;5073321;28;20064;-70
2022/03/29 09:21:54;;;;;;;;;;;11.50;99.90;;;;;;5092086;28;20059;-70
2022/03/29 09:24:21;;;;;;;22.15;8.77;;;11.70;99.90;;;;;;5072784;28;19920;-70
2022/03/29 09:26:50;;;;;;;17.00;8.98;;;12.00;99.90;;;;;;5091213;28;20052;-70
2022/03/29 09:29:19;;;;;;;28.85;10.13;;;12.40;99.90;;;;;;5091018;28;20221;-70
2022/03/29 09:31:49;;;;;;;21.98;10.00;;;12.40;99.90;;;;;;5076140;28;20048;-70
2022/03/29 09:34:19;;;;;;;24.53;9.97;;;12.80;99.90;;;;;;5076232;28;20503;-70
2022/03/29 09:36:48;;;;;;;17.92;8.27;;;13.30;99.90;;;;;;5076517;28;20355;-70
2022/03/29 09:39:35;;;;;;;17.80;8.50;;;13.80;99.90;;;;;;5094056;28;20048;-71
2022/03/29 09:42:03;;;;;;;20.70;8.82;;;13.90;99.90;;;;;;5091966;28;20134;-71
2022/03/29 09:44:41;;;;;;;20.92;8.38;;;13.70;99.90;;;;;;5091753;28;20126;-70
2022/03/29 09:47:09;;;;;;;21.98;9.25;;;13.80;99.90;;;;;;5076755;28;20077;-70
2022/03/29 09:49:53;;;;;;;22.08;8.85;;;13.70;99.90;;;;;;5074436;28;20056;-70
2022/03/29 09:52:23;;;;;;;20.38;9.13;;;13.90;99.90;;;;;;5074076;28;20050;-70
2022/03/29 09:55:21;;;;;;;15.38;7.78;;;13.70;99.90;;;;;;5077014;28;20387;-70
2022/03/29 09:57:49;;;;;;;16.63;8.82;;;13.60;99.90;;;;;;4993062;28;20073;-70
2022/03/29 10:00:19;;;;;;;19.42;9.25;;;13.60;99.90;;;;;;5054792;28;20539;-70
2022/03/29 10:02:47;;;;;;;14.30;7.75;;;13.50;99.90;;;;;;5093690;28;20055;-69
2022/03/29 10:05:18;;;;;;;18.50;8.20;;;13.40;99.90;;;;;;5094817;28;20055;-70
2022/03/29 10:07:46;;;;;;;29.08;8.60;;;13.50;99.90;;;;;;5093824;28;20079;-70
2022/03/29 10:10:12;;;;;;;15.32;7.47;;;13.40;99.90;;;;;;5066686;28;20119;-70
2022/03/29 10:12:40;;;;;;;23.98;9.13;;;13.00;99.90;;;;;;5089975;28;20051;-70
2022/03/29 10:15:08;;;;;;;22.20;8.00;;;12.70;99.90;;;;;;5090384;28;20098;-70
2022/03/29 10:17:36;;;;;;;20.85;7.75;;;12.50;99.90;;;;;;5076595;28;20092;-71
2022/03/29 10:20:06;;;;;;;25.52;8.10;;;12.60;99.90;;;;;;5075889;28;20047;-71
2022/03/29 10:22:36;;;;;;;16.35;8.13;;;12.50;99.90;;;;;;5090962;28;20461;-70
2022/03/29 10:25:04;;;;;;;24.42;8.45;;;12.40;99.90;;;;;;5091510;28;20499;-70
2022/03/29 10:27:32;;;;;;;21.10;8.57;;;12.40;99.90;;;;;;5090385;28;20101;-69
2022/03/29 10:29:59;;;;;;;14.77;7.70;;;12.30;99.90;;;;;;5058042;28;20052;-70
2022/03/29 10:32:31;;;;;;;18.17;7.15;;;12.30;99.90;;;;;;5065773;28;20051;-69
2022/03/29 10:35:05;;;;;;;20.27;8.20;;;12.30;99.90;;;;;;5064872;28;20053;-70
2022/03/29 10:37:53;;;;;;;15.73;7.40;;;12.40;99.90;;;;;;5083954;28;20040;-70
2022/03/29 10:40:41;;;;;;;20.77;7.32;;;12.80;99.90;;;;;;5087428;28;20143;-71
2022/03/29 10:43:29;;;;;;;19.48;7.43;;;13.20;99.90;;;;;;5068284;28;20060;-70
2022/03/29 10:45:57;;;;;;;17.35;7.20;;;13.50;99.90;;;;;;5069404;28;20044;-70
2022/03/29 10:48:24;;;;;;;13.93;6.25;;;13.50;99.90;;;;;;5068421;28;20059;-70
2022/03/29 10:50:57;;;;;;;21.70;6.93;;;13.50;99.90;;;;;;5067892;28;20060;-70
2022/03/29 10:53:27;;;;;;;17.65;6.70;;;13.60;99.90;;;;;;5068740;28;20044;-71
2022/03/29 10:56:20;;;;;;;20.42;7.13;;;13.80;99.90;;;;;;5071379;28;20830;-70
2022/03/29 10:59:12;;;;;;;17.48;6.15;;;13.80;99.90;;;;;;5057771;28;20083;-70
2022/03/29 11:01:42;;;;;;;15.90;6.65;;;14.10;99.90;;;;;;5082395;28;20074;-69
2022/03/29 11:04:19;;;;;;;20.35;6.70;;;14.60;99.90;;;;;;5071215;28;20054;-71
2022/03/29 11:07:12;;;;;;;25.75;6.38;;;14.90;99.90;;;;;;5083114;28;20106;-70
2022/03/29 11:09:44;;;;;;;18.02;6.03;;;14.90;99.70;;;;;;5084403;28;20063;-71
2022/03/29 11:12:40;;;;;;;16.00;6.75;;;14.90;99.60;;;;;;5086637;28;20137;-71
2022/03/29 11:15:46;;;;;;;14.93;6.35;;;14.60;98.60;;;;;;5074302;28;20063;-71
2022/03/29 11:18:43;;;;;;;19.05;6.72;;;14.80;98.40;;;;;;5074326;28;20060;-70
2022/03/29 11:21:10;;;;;;;16.70;6.00;;;15.00;98.10;;;;;;5073831;28;20064;-71
2022/03/29 11:23:38;;;;;;;14.35;6.70;;;15.10;99.40;;;;;;5071074;28;20113;-71
2022/03/29 11:26:10;;;;;;;16.55;6.45;;;15.20;99.20;;;;;;5093163;28;20473;-70
2022/03/29 11:28:38;;;;;;;18.67;7.28;;;15.60;96.70;;;;;;5074041;28;20056;-70
2022/03/29 11:31:05;;;;;;;19.83;8.45;;;15.30;97.60;;;;;;5092006;28;20063;-71
2022/03/29 11:33:34;;;;;;;15.77;6.50;;;15.20;98.20;;;;;;5074668;28;20048;-71
2022/03/29 11:36:02;;;;;;;20.25;7.90;;;15.20;97.70;;;;;;5074996;28;20485;-71
2022/03/29 11:38:33;;;;;;;14.95;6.93;;;14.90;97.80;;;;;;5073507;28;20130;-70
2022/03/29 11:41:00;;;;;;;18.45;7.15;;;14.90;98.20;;;;;;5092198;28;20060;-71
2022/03/29 11:43:28;;;;;;;17.13;7.78;;;14.80;98.50;;;;;;5092184;28;20081;-71
2022/03/29 11:45:57;;;;;;;19.40;7.53;;;14.70;98.30;;;;;;5092291;28;20051;-71
2022/03/29 11:48:26;;;;;;;21.15;7.15;;;14.30;98.20;;;;;;5092429;28;20113;-71
2022/03/29 11:50:54;;;;;;;17.20;6.40;;;13.90;98.90;;;;;;5092774;28;20067;-71
2022/03/29 11:53:25;;;;;;;14.45;7.05;;;13.30;99.90;;;;;;5073122;28;20153;-70
2022/03/29 11:55:58;;;;;;;17.35;7.63;;;13.10;99.90;;;;;;5075988;28;20101;-71
2022/03/29 11:58:27;;;;;;;24.10;7.68;;;13.00;99.90;;;;;;5074008;28;20097;-71
2022/03/29 12:01:00;;;;;;;14.85;6.38;;;12.80;99.90;;;;;;5092247;28;20466;-70
2022/03/29 12:03:28;;;;;;;14.38;6.97;;;12.70;99.90;;;;;;5074152;28;20067;-70
2022/03/29 12:06:13;;;;;;;13.40;7.03;;;12.70;99.90;;;;;;5091614;28;20127;-70
2022/03/29 12:08:48;;;;;;;25.13;7.65;;;12.90;99.90;;;;;;5073826;28;20131;-71
2022/03/29 12:11:15;;;;;;;20.63;7.57;;;13.20;99.90;;;;;;5072873;28;20056;-70
2022/03/29 12:13:44;;;;;;;12.73;6.72;;;13.40;99.90;;;;;;5072627;28;20058;-71
2022/03/29 12:16:17;;;;;;;19.35;7.78;;;13.50;99.90;;;;;;5074138;28;20089;-71
2022/03/29 12:18:45;;;;;;;16.15;7.03;;;13.60;99.30;;;;;;5087440;28;20456;-70
2022/03/29 12:21:13;;;;;;;17.45;6.78;;;13.60;99.50;;;;;;5072928;28;20048;-71
2022/03/29 12:23:42;;;;;;;16.30;6.80;;;13.60;99.40;;;;;;5085763;28;20399;-70
2022/03/29 12:26:10;;;;;;;18.38;7.25;;;13.40;99.10;;;;;;5087955;28;20052;-70
2022/03/29 12:28:37;;;;;;;17.27;6.30;;;13.40;99.50;;;;;;5070495;28;20113;-70
2022/03/29 12:31:09;;;;;;;15.27;6.72;;;13.40;99.90;;;;;;5067293;28;20448;-70
2022/03/29 12:33:37;;;;;;;16.67;6.82;;;13.30;99.70;;;;;;5069403;28;20051;-70
2022/03/29 12:36:07;;;;;;;17.30;7.65;;;13.00;99.90;;;;;;5068822;28;20048;-70
2022/03/29 12:38:43;;;;;;;14.25;6.93;;;13.00;99.50;;;;;;5067918;28;20047;-70
2022/03/29 12:41:11;;;;;;;15.40;7.28;;;13.10;99.80;;;;;;5067771;28;20086;-70
2022/03/29 12:43:38;;;;;;;27.88;8.73;;;13.20;99.90;;;;;;5088932;28;20055;-70
2022/03/29 12:46:09;;;;;;;16.33;7.40;;;13.30;99.70;;;;;;5070115;28;20450;-70
2022/03/29 12:48:39;;;;;;;15.90;7.22;;;13.40;99.20;;;;;;5069016;28;20171;-70
2022/03/29 12:51:07;;;;;;;17.17;8.33;;;13.50;98.80;;;;;;5087988;28;20079;-70
2022/03/29 12:53:34;;;;;;;18.70;8.35;;;13.80;98.80;;;;;;5075065;28;20052;-71
2022/03/29 12:56:09;;;;;;;14.75;8.13;;;14.00;98.50;;;;;;5067784;28;20079;-71